Lisle, Illinois
Current Conditions -  °F | °C
As of 10:52 AM on Saturday 25 Oct 2014 (Local Time) from KDPA Reporting Station
Clear Clear  
Wind Chill: 66°   Ceiling: Unl
Heat Index: 66°   Visibility: 10mi
Dew Point: 49°   Wind: 15mph
Humidity: 54%   Direction: 320°NW
Pressure: 29.97"   Gusts: NA
Location:  41.8°N, 88.07°W
Report Text: KDPA 251552Z 32013KT 10SM CLR 19/09 A2997 RMK AO2 SLP146 T01890094
Loading
Personal Weather Stations






























Interactive Weather Map
Tropical Storm Tracking
New forecast layout! Learn more

10-Day Weather Forecast

Advertisements
Track Severe Weather on mobile